Aérodrome :
LOGIN :

S'inscrire | Disclaimer

   EN    FR    IT 

 










Légende :    VFR   VFR Marginal   IFR   IFR Intensif   IFR Très Intensif
Visi : 
Plafond : 
>= 8 km
>= 3000ft
5 à 8 km
1000 à 3000 ft
1500m à 5 km
500 à 1000 ft
800 à 1500m
200 à 500 ft
< 800m
< 200 ft
Symboles :   Orages  Brouillard  Fortes neiges  Fortes précipitations  Vent > 20 kt
SIGMETs :   Divers  Orages  Givrage  Turbulence  Onde Orograph.  Cendres Volcan.






- Altitude de l'aérodrome : 29 ft
- Code IATA : SVG


ENZV - Sola

DERNIER METAR :
  • 272250Z 14009KT 9999 -RASN FEW037 BKN049 01/M02 Q0996

METARs EXPIRÉS :
  • 272220Z 14012KT 9999 SHSN FEW008 SCT020 BKN050 01/M01 Q0996
  • 272150Z 14012KT 9999 FEW049 BKN059 01/M03 Q0996
  • 272120Z 14010KT 9999 FEW049 BKN059 01/M03 Q0996
  • 272050Z 14012KT 9999 FEW045 01/M03 Q0996
  • 272020Z 14010KT 9999 FEW025 SCT050 01/M03 Q0995 TEMPO 1500 SHSN VV009

TAF ENZV
Valide du 27 à 18h jusqu'au 28 à 18h UTC


2718/2818 15008KT 9999 FEW015CB BKN020
TEMPO 2718/2806 1500 SHSN VV008
BECMG 2805/2808 26010KT SCT020
BECMG 2813/2816 15008KT



MET'MAP, la Météo Aéronautique d'un coup d'oeil ! - Copyright ORBIFLY Décembre 2007 - Disclaimer

ORBIFLY MET'MAP TEAM :

Programmation & Développement : Alexandra Zaïnal
Sur une idée originale de : Baudouin d'Aumeries
Assistance à la programmation : Marc-Olivier Méhu
Soutien technique & logistique : Manuel Goepfert

Contact : metmap@orbifly.com




SOURCES & CREDITS :

   NOAA